Cape York — VRXE9 — position and weather

sailwx.info

Track history (hours):
 
Tides and Currents Weather Stations Pressure Air Temp Water Temp Dewpoint Dewpoint Depression Visibility Wind Speed Wind Dir Waves Ship Positions

Cape York

Last reported at 2017-Jun-18 21:21 UTC. Time now 2017-Jun-23 00:11 UTC.
Position N 27°44' W 015°14'.

Length 170 m; draft 9.8 m.

Type: Cargo ship. MMSI: 477924000.

Date/timePositionNaut miles runAvg speedWind from/ knotsBaromVisibWave heightAir tempDewpointWater temp
2017-Jun-18 21:21N 27°44' W 015°14'412.7
2017-Jun-18 21:00N 27°49' W 015°15'612.8
2017-Jun-18 20:30N 27°55' W 015°15'612.8
2017-Jun-18 20:00N 28°01' W 015°16'510.9
2017-Jun-18 19:30N 28°05' W 015°20'4 6.9
2017-Jun-18 18:58N 28°07' W 015°24'0 0.1
2017-Jun-18 18:28N 28°07' W 015°24'0 0.0
2017-Jun-18 17:58N 28°07' W 015°24'0 0.0
2017-Jun-18 17:28N 28°07' W 015°24'0 0.0
2017-Jun-18 16:58N 28°07' W 015°24'0 0.0
2017-Jun-18 16:19N 28°07' W 015°24'0 0.1
2017-Jun-18 15:49N 28°07' W 015°24'0 0.0
2017-Jun-18 15:19N 28°07' W 015°24'0 0.0
2017-Jun-18 14:49N 28°07' W 015°24'0 0.1
2017-Jun-18 13:52N 28°07' W 015°24'0 0.1
2017-Jun-18 13:22N 28°07' W 015°24'0 0.4
2017-Jun-18 12:52N 28°06' W 015°24'0 0.4
2017-Jun-18 12:22N 28°06' W 015°24'0 0.0
2017-Jun-18 11:52N 28°06' W 015°24'0 0.0
2017-Jun-18 11:19N 28°06' W 015°24'0 0.0
2017-Jun-18 10:52N 28°06' W 015°24'0 0.2
2017-Jun-18 10:23N 28°06' W 015°24'1 1.3
2017-Jun-18 10:00N 28°07' W 015°24'3 5.1
2017-Jun-18 09:30N 28°08' W 015°21'4 8.0
2017-Jun-18 09:00N 28°11' W 015°18'4 8.4
2017-Jun-18 08:30N 28°14' W 015°15'5 9.2
2017-Jun-18 08:00N 28°17' W 015°12'510.7
2017-Jun-18 07:30N 28°21' W 015°08'612.8
2017-Jun-18 07:00N 28°26' W 015°03'912.8
2017-Jun-18 06:18N 28°34' W 014°57'  
Track history (hours):
 
Tides and Currents Weather Stations Pressure Air Temp Water Temp Dewpoint Dewpoint Depression Visibility Wind Speed Wind Dir Waves Ship Positions

Cape York

Last reported at 2017-Jun-18 21:21 UTC. Time now 2017-Jun-23 00:11 UTC.
Position N 27°44' W 015°14'.

Length 170 m; draft 9.8 m.

Type: Cargo ship. MMSI: 477924000.

Date/timePositionNaut miles runAvg speedWind from/ knotsBaromVisibWave heightAir tempDewpointWater temp
2017-Jun-18 21:21N 27°44' W 015°14'412.7
2017-Jun-18 21:00N 27°49' W 015°15'612.8
2017-Jun-18 20:30N 27°55' W 015°15'612.8
2017-Jun-18 20:00N 28°01' W 015°16'510.9
2017-Jun-18 19:30N 28°05' W 015°20'4 6.9
2017-Jun-18 18:58N 28°07' W 015°24'0 0.1
2017-Jun-18 18:28N 28°07' W 015°24'0 0.0
2017-Jun-18 17:58N 28°07' W 015°24'0 0.0
2017-Jun-18 17:28N 28°07' W 015°24'0 0.0
2017-Jun-18 16:58N 28°07' W 015°24'0 0.0
2017-Jun-18 16:19N 28°07' W 015°24'0 0.1
2017-Jun-18 15:49N 28°07' W 015°24'0 0.0
2017-Jun-18 15:19N 28°07' W 015°24'0 0.0
2017-Jun-18 14:49N 28°07' W 015°24'0 0.1
2017-Jun-18 13:52N 28°07' W 015°24'0 0.1
2017-Jun-18 13:22N 28°07' W 015°24'0 0.4
2017-Jun-18 12:52N 28°06' W 015°24'0 0.4
2017-Jun-18 12:22N 28°06' W 015°24'0 0.0
2017-Jun-18 11:52N 28°06' W 015°24'0 0.0
2017-Jun-18 11:19N 28°06' W 015°24'0 0.0
2017-Jun-18 10:52N 28°06' W 015°24'0 0.2
2017-Jun-18 10:23N 28°06' W 015°24'1 1.3
2017-Jun-18 10:00N 28°07' W 015°24'3 5.1
2017-Jun-18 09:30N 28°08' W 015°21'4 8.0
2017-Jun-18 09:00N 28°11' W 015°18'4 8.4
2017-Jun-18 08:30N 28°14' W 015°15'5 9.2
2017-Jun-18 08:00N 28°17' W 015°12'510.7
2017-Jun-18 07:30N 28°21' W 015°08'612.8
2017-Jun-18 07:00N 28°26' W 015°03'912.8
2017-Jun-18 06:18N 28°34' W 014°57'  

Dump ship's entire track history